Time;durP1;ratioP1;P1;durP2;ratioP2;P2;SDS_P1;SDS_P2;PMS_P1;PMS_P2;Temp;Humidity;BMP_temperature;BMP_pressure;BME280_temperature;BME280_humidity;BME280_pressure;Samples;Min_cycle;Max_cycle;Signal;HPM_P1;HPM_P2
2022/06/29 00:00:31;;;;;;;10.50;9.20;;;;;;;18.70;94.26;96981.77;106544;1284;102449;-82
2022/06/29 00:03:14;;;;;;;12.50;10.10;;;;;;;18.69;93.70;96991.48;106464;1284;72214;-82
2022/06/29 00:05:46;;;;;;;10.10;9.10;;;;;;;18.54;93.13;96995.05;106688;1284;51644;-81
2022/06/29 00:08:17;;;;;;;10.40;8.80;;;;;;;18.40;93.67;97006.02;106408;1284;139249;-82
2022/06/29 00:10:48;;;;;;;12.00;10.10;;;;;;;18.35;94.82;97003.83;106523;1284;106624;-81
2022/06/29 00:13:20;;;;;;;11.30;10.20;;;;;;;18.42;95.76;97006.44;106674;1284;38801;-82
2022/06/29 00:15:52;;;;;;;9.80;8.50;;;;;;;18.55;96.11;97005.21;106207;1284;128954;-82
2022/06/29 00:18:24;;;;;;;11.40;9.20;;;;;;;18.64;95.79;97005.95;106049;1284;132484;-82
2022/06/29 00:20:58;;;;;;;11.60;9.20;;;;;;;18.67;95.42;96999.84;106165;1284;98689;-82
2022/06/29 00:23:29;;;;;;;10.60;9.40;;;;;;;18.82;95.42;96992.71;106067;1284;108919;-82
2022/06/29 00:26:02;;;;;;;10.60;9.60;;;;;;;18.91;94.97;96989.23;106093;1284;123646;-82
2022/06/29 00:28:34;;;;;;;11.80;10.40;;;;;;;18.98;94.48;96988.43;106091;1284;105355;-82
2022/06/29 00:31:06;;;;;;;12.50;10.10;;;;;;;18.95;93.88;96992.47;106204;1284;103987;-82
2022/06/29 00:33:37;;;;;;;9.70;8.50;;;;;;;18.81;93.94;96985.89;106184;1284;100392;-82
2022/06/29 00:36:09;;;;;;;14.50;9.20;;;;;;;18.70;94.61;96980.02;106206;1284;118577;-82
2022/06/29 00:38:42;;;;;;;10.30;9.30;;;;;;;18.71;95.31;96977.52;106684;1284;35216;-82
2022/06/29 00:41:16;;;;;;;13.20;10.80;;;;;;;18.69;95.62;96975.52;106353;1284;141945;-82
2022/06/29 00:43:47;;;;;;;12.00;9.70;;;;;;;18.80;95.96;96974.52;106098;1284;113746;-82
2022/06/29 00:46:18;;;;;;;13.20;11.20;;;;;;;18.84;95.72;96969.43;106022;1284;114825;-82
2022/06/29 00:48:49;;;;;;;11.50;10.40;;;;;;;18.83;95.78;96970.42;106046;1284;121454;-82
2022/06/29 00:51:22;;;;;;;11.70;10.50;;;;;;;18.74;95.94;96965.00;106178;1284;139889;-81
2022/06/29 00:53:55;;;;;;;11.90;10.60;;;;;;;18.73;96.38;96961.73;106281;1284;96958;-82
2022/06/29 00:56:28;;;;;;;11.90;10.70;;;;;;;18.76;96.79;96961.61;103787;1284;1828713;-81
2022/06/29 00:59:04;;;;;;;11.60;9.70;;;;;;;18.84;97.26;96959.02;106327;1284;118109;-82
2022/06/29 01:01:36;;;;;;;11.10;10.00;;;;;;;18.94;97.29;96950.13;106378;1284;130524;-82
2022/06/29 01:04:07;;;;;;;12.30;10.00;;;;;;;19.06;97.26;96948.52;106400;1284;109176;-82
2022/06/29 01:06:39;;;;;;;11.70;9.50;;;;;;;19.19;97.18;96950.87;106606;1284;92116;-82
2022/06/29 01:09:11;;;;;;;12.40;9.60;;;;;;;19.32;97.05;96946.30;106611;1284;87597;-82
2022/06/29 01:11:42;;;;;;;11.50;10.30;;;;;;;19.43;96.72;96940.04;106434;1284;97070;-82
2022/06/29 01:14:17;;;;;;;11.90;10.70;;;;;;;19.50;96.36;96937.02;106292;1284;117498;-81
2022/06/29 01:16:49;;;;;;;12.00;10.70;;;;;;;19.59;96.04;96929.83;106605;1284;106307;-82
2022/06/29 01:19:20;;;;;;;11.10;8.80;;;;;;;19.63;95.86;96921.73;106769;1284;85961;-82
2022/06/29 01:21:52;;;;;;;10.90;9.30;;;;;;;19.67;95.85;96923.74;106986;1284;34699;-82
2022/06/29 01:24:25;;;;;;;14.60;10.20;;;;;;;19.70;95.72;96920.18;106567;1284;130156;-81
2022/06/29 01:26:56;;;;;;;12.10;10.90;;;;;;;19.62;95.53;96920.86;106909;1284;35905;-81
2022/06/29 01:29:30;;;;;;;12.90;11.40;;;;;;;19.57;95.79;96919.21;105308;1284;1834523;-81
2022/06/29 01:32:02;;;;;;;11.90;10.40;;;;;;;19.57;96.05;96917.70;106868;1284;98469;-82
2022/06/29 01:34:34;;;;;;;11.00;10.00;;;;;;;19.65;96.13;96913.98;106748;1284;41493;-82
2022/06/29 01:37:08;;;;;;;11.10;9.90;;;;;;;19.73;96.02;96908.23;106654;1284;120392;-81
2022/06/29 01:39:40;;;;;;;10.50;9.20;;;;;;;19.80;95.78;96897.39;106952;1284;42471;-82
2022/06/29 01:42:11;;;;;;;11.90;9.30;;;;;;;19.83;95.52;96893.48;107010;1284;33980;-82
2022/06/29 01:44:43;;;;;;;11.60;10.20;;;;;;;19.80;95.30;96890.39;106834;1284;84142;-82
2022/06/29 01:47:14;;;;;;;12.20;10.90;;;;;;;19.77;95.16;96889.43;106780;1284;67262;-81
2022/06/29 01:49:45;;;;;;;11.30;10.10;;;;;;;19.73;94.95;96882.09;106845;1284;67895;-82
2022/06/29 01:52:17;;;;;;;10.80;9.40;;;;;;;19.68;94.85;96878.41;106737;1284;101544;-83
2022/06/29 01:54:48;;;;;;;16.40;9.90;;;;;;;19.60;95.00;96874.77;106915;1284;83366;-81
2022/06/29 01:57:19;;;;;;;10.90;9.50;;;;;;;19.54;95.15;96878.14;106449;1284;142513;-82
2022/06/29 01:59:50;;;;;;;10.30;9.10;;;;;;;19.55;95.43;96883.66;106422;1282;102761;-82
2022/06/29 02:02:21;;;;;;;11.30;9.40;;;;;;;19.59;95.46;96885.80;106287;1284;85629;-81
2022/06/29 02:04:52;;;;;;;11.80;9.80;;;;;;;19.61;95.46;96888.11;106226;1283;106412;-81
2022/06/29 02:07:23;;;;;;;12.20;11.00;;;;;;;19.70;95.53;96889.74;106166;1284;101567;-82
2022/06/29 02:09:54;;;;;;;13.50;12.10;;;;;;;19.77;95.34;96888.53;106742;1284;47651;-82
2022/06/29 02:12:25;;;;;;;12.60;11.30;;;;;;;19.82;95.32;96885.75;106483;1284;120276;-82
2022/06/29 02:14:57;;;;;;;13.60;11.40;;;;;;;19.75;95.10;96886.69;106814;1281;103912;-82
2022/06/29 02:17:28;;;;;;;11.90;10.70;;;;;;;19.68;95.33;96886.89;106652;1284;99652;-82
2022/06/29 02:20:02;;;;;;;12.80;11.50;;;;;;;19.63;95.49;96895.38;106804;1284;73602;-81
2022/06/29 02:22:33;;;;;;;12.40;11.10;;;;;;;19.55;95.80;96899.02;106733;1284;43969;-82
2022/06/29 02:25:05;;;;;;;11.70;10.50;;;;;;;19.54;96.13;96896.05;105130;1284;1962228;-82
2022/06/29 02:27:38;;;;;;;11.80;10.40;;;;;;;19.64;96.40;96895.33;106738;1284;37162;-82
2022/06/29 02:30:12;;;;;;;12.80;11.60;;;;;;;19.73;96.47;96893.98;106681;1284;107428;-82
2022/06/29 02:35:36;;;;;;;12.80;10.90;;;;;;;19.72;96.24;96892.51;106688;1284;83818;-82
2022/06/29 02:38:07;;;;;;;13.10;11.10;;;;;;;19.66;96.02;96886.35;106711;1284;110752;-82
2022/06/29 02:40:38;;;;;;;12.10;10.80;;;;;;;19.61;96.03;96879.73;106884;1284;127219;-82
2022/06/29 02:43:10;;;;;;;11.90;10.80;;;;;;;19.47;96.27;96867.97;106876;1282;106560;-82
2022/06/29 02:45:43;;;;;;;13.80;12.40;;;;;;;19.35;96.60;96862.07;106957;1284;107539;-82
2022/06/29 02:48:16;;;;;;;13.90;12.40;;;;;;;19.25;96.91;96868.64;106983;1284;36897;-82
2022/06/29 02:50:48;;;;;;;12.20;11.00;;;;;;;19.26;97.23;96868.29;106525;1284;98938;-81
2022/06/29 02:53:19;;;;;;;12.80;11.60;;;;;;;19.34;97.32;96862.51;106885;1284;35049;-81
2022/06/29 02:55:50;;;;;;;12.70;11.00;;;;;;;19.38;97.08;96859.59;106905;1283;36818;-82
2022/06/29 02:58:22;;;;;;;13.40;12.10;;;;;;;19.43;97.02;96864.85;106581;1284;90265;-82
2022/06/29 03:00:53;;;;;;;13.70;12.30;;;;;;;19.45;96.86;96870.38;106779;1284;34966;-82
2022/06/29 03:03:24;;;;;;;11.80;10.70;;;;;;;19.42;96.68;96870.95;106725;1284;81205;-82
2022/06/29 03:05:55;;;;;;;14.70;13.30;;;;;;;19.49;96.90;96861.85;106459;1285;114293;-81
2022/06/29 03:08:27;;;;;;;14.50;12.80;;;;;;;19.60;96.94;96858.56;106655;1284;95278;-82
2022/06/29 03:10:58;;;;;;;14.60;13.10;;;;;;;19.69;96.61;96862.46;106750;1284;33085;-81
2022/06/29 03:13:29;;;;;;;14.40;12.90;;;;;;;19.63;95.99;96867.27;106404;1284;117730;-81
2022/06/29 03:16:00;;;;;;;15.20;13.40;;;;;;;19.50;96.01;96862.86;106667;1284;39653;-82
2022/06/29 03:18:32;;;;;;;14.40;13.10;;;;;;;19.42;96.18;96862.10;106613;1284;35275;-82
2022/06/29 03:21:03;;;;;;;13.40;12.00;;;;;;;19.37;96.48;96863.08;106422;1284;84675;-82
2022/06/29 03:23:34;;;;;;;13.00;11.40;;;;;;;19.43;96.82;96860.16;106611;1284;34253;-82
2022/06/29 03:26:05;;;;;;;13.20;11.80;;;;;;;19.52;96.87;96862.02;106376;1284;146903;-82
2022/06/29 03:28:40;;;;;;;14.60;13.10;;;;;;;19.61;96.79;96863.97;106505;1284;98856;-81
2022/06/29 03:31:13;;;;;;;12.80;11.50;;;;;;;19.69;96.42;96858.34;106717;1284;33674;-82
2022/06/29 03:33:44;;;;;;;12.20;11.00;;;;;;;19.78;96.22;96848.67;106429;1284;108801;-80
2022/06/29 03:36:15;;;;;;;14.00;12.20;;;;;;;19.87;95.98;96842.98;106645;1284;34218;-80
2022/06/29 03:38:46;;;;;;;13.20;12.00;;;;;;;19.98;95.62;96843.89;106555;1284;82097;-81
2022/06/29 03:41:17;;;;;;;15.20;13.50;;;;;;;20.09;95.33;96844.64;105549;1284;1369117;-81
2022/06/29 03:43:48;;;;;;;15.00;13.50;;;;;;;20.17;94.97;96848.44;106592;1284;38859;-81
2022/06/29 03:46:20;;;;;;;14.10;12.60;;;;;;;20.22;94.61;96847.67;106254;1284;105972;-81
2022/06/29 03:48:51;;;;;;;13.40;12.10;;;;;;;20.26;94.52;96843.58;106616;1284;32766;-81
2022/06/29 03:51:23;;;;;;;14.80;11.60;;;;;;;20.23;94.34;96841.41;106577;1284;44245;-81
2022/06/29 03:53:54;;;;;;;13.70;12.40;;;;;;;20.31;94.22;96837.38;106358;1284;147420;-81
2022/06/29 03:56:25;;;;;;;14.10;12.70;;;;;;;20.41;94.02;96838.17;106604;1284;43094;-82
2022/06/29 03:58:59;;;;;;;13.60;12.40;;;;;;;20.54;93.75;96840.23;105484;1284;1722682;-82
2022/06/29 04:01:30;;;;;;;15.90;14.30;;;;;;;20.68;93.41;96843.96;106353;1284;126735;-82
2022/06/29 04:04:02;;;;;;;14.70;13.20;;;;;;;20.85;93.29;96849.57;106508;1282;94979;-82
2022/06/29 04:06:33;;;;;;;15.10;12.70;;;;;;;20.96;92.81;96847.92;106352;1284;103905;-82
2022/06/29 04:09:05;;;;;;;13.60;12.20;;;;;;;21.11;92.47;96847.52;106470;1284;116695;-82
2022/06/29 04:11:54;;;;;;;14.80;13.30;;;;;;;21.23;91.87;96845.23;106178;1284;104745;-82
2022/06/29 04:14:26;;;;;;;15.80;14.30;;;;;;;21.29;91.42;96843.69;106147;1284;113734;-82
2022/06/29 04:16:59;;;;;;;16.20;14.60;;;;;;;21.28;91.04;96837.02;106140;1284;138364;-81
2022/06/29 04:19:30;;;;;;;15.00;13.40;;;;;;;21.23;91.05;96836.98;102690;1284;2714484;-82
2022/06/29 04:22:01;;;;;;;13.30;12.10;;;;;;;21.26;90.88;96839.02;106029;1284;140760;-82
2022/06/29 04:24:32;;;;;;;14.60;13.10;;;;;;;21.20;90.58;96839.83;106115;1284;148814;-82
2022/06/29 04:27:05;;;;;;;14.50;13.00;;;;;;;21.07;90.27;96839.38;106173;1284;97797;-82
2022/06/29 04:29:37;;;;;;;14.00;12.70;;;;;;;21.01;90.40;96841.36;106214;1284;212669;-82
2022/06/29 04:32:09;;;;;;;14.10;12.60;;;;;;;20.93;90.21;96841.02;106443;1284;97385;-82
2022/06/29 04:34:41;;;;;;;14.20;12.10;;;;;;;20.94;90.61;96837.73;106513;1284;107758;-82
2022/06/29 04:37:15;;;;;;;14.00;12.70;;;;;;;20.89;90.50;96835.05;106518;1284;124580;-81
2022/06/29 04:39:47;;;;;;;16.10;14.40;;;;;;;20.84;90.48;96834.43;106308;1284;124508;-81
2022/06/29 04:42:18;;;;;;;15.30;13.80;;;;;;;20.76;90.42;96835.69;106103;1284;116417;-81
2022/06/29 04:44:49;;;;;;;15.40;13.90;;;;;;;20.75;90.84;96841.88;106268;1284;113358;-81
2022/06/29 04:50:39;;;;;;;14.80;13.30;;;;;;;21.08;90.74;96841.70;106785;1284;42519;-82
2022/06/29 04:53:11;;;;;;;14.30;12.80;;;;;;;21.18;90.48;96837.95;106781;1284;49948;-82
2022/06/29 04:55:42;;;;;;;13.70;12.40;;;;;;;21.23;89.95;96839.08;104852;1284;2639964;-82
2022/06/29 04:58:13;;;;;;;15.50;14.10;;;;;;;21.37;89.86;96840.83;106858;1284;45994;-82
2022/06/29 05:00:44;;;;;;;15.50;13.90;;;;;;;21.62;89.96;96833.51;106247;1284;171896;-81
2022/06/29 05:03:16;;;;;;;14.40;12.80;;;;;;;21.94;89.66;96832.75;106580;1287;38036;-81
2022/06/29 05:05:50;;;;;;;12.80;11.50;;;;;;;22.27;88.83;96831.05;106415;1284;178944;-82
2022/06/29 05:08:21;;;;;;;13.50;12.30;;;;;;;22.47;87.83;96831.30;105949;1284;1278988;-82
2022/06/29 05:10:54;;;;;;;13.00;11.80;;;;;;;22.58;86.91;96830.27;106859;1284;32273;-82
2022/06/29 05:13:25;;;;;;;14.80;13.40;;;;;;;22.62;86.19;96834.98;105400;1284;1224758;-82
2022/06/29 05:16:09;;;;;;;14.80;13.40;;;;;;;22.52;85.33;96838.75;106877;1284;35630;-81
2022/06/29 05:18:40;;;;;;;14.80;13.40;;;;;;;22.47;85.33;96837.48;106885;1284;32634;-81
2022/06/29 05:21:12;;;;;;;14.90;12.70;;;;;;;22.47;84.70;96840.48;105216;1284;1514734;-81
2022/06/29 05:23:45;;;;;;;13.00;11.70;;;;;;;22.47;84.70;96843.50;106352;1284;192701;-82
2022/06/29 05:26:16;;;;;;;13.50;12.10;;;;;;;22.50;84.46;96841.80;106380;1284;108262;-81
2022/06/29 05:28:50;;;;;;;15.20;13.70;;;;;;;22.58;84.60;96838.45;106191;1284;136355;-82
2022/06/29 05:31:23;;;;;;;14.80;13.30;;;;;;;22.71;84.22;96838.27;106243;1284;143514;-81
2022/06/29 05:33:55;;;;;;;14.10;12.80;;;;;;;22.79;84.03;96836.37;106230;1284;118001;-81
2022/06/29 05:36:26;;;;;;;13.80;12.40;;;;;;;22.95;84.07;96833.36;106150;1284;184147;-81
2022/06/29 05:38:58;;;;;;;13.40;12.20;;;;;;;23.12;83.65;96833.42;104973;1284;1971681;-81
2022/06/29 05:41:29;;;;;;;12.70;11.50;;;;;;;23.31;83.11;96832.36;106131;1284;142831;-82
2022/06/29 05:44:02;;;;;;;13.40;12.20;;;;;;;23.60;82.99;96827.77;106395;1284;127217;-79
2022/06/29 05:46:34;;;;;;;14.10;12.70;;;;;;;23.88;81.96;96829.24;106196;1284;104712;-79
2022/06/29 05:49:09;;;;;;;15.70;14.20;;;;;;;23.99;81.07;96829.53;105849;1284;122958;-79
2022/06/29 05:51:40;;;;;;;15.20;13.60;;;;;;;24.06;79.88;96831.10;106184;1284;100304;-78
2022/06/29 05:54:14;;;;;;;14.30;12.90;;;;;;;23.97;79.09;96831.51;105686;1284;103002;-79
2022/06/29 05:56:46;;;;;;;14.50;11.70;;;;;;;23.94;79.19;96829.36;105697;1284;158171;-79
2022/06/29 05:59:20;;;;;;;12.80;11.60;;;;;;;24.08;79.20;96828.60;104870;1284;1269119;-79
2022/06/29 06:01:53;;;;;;;14.60;13.10;;;;;;;24.19;78.68;96827.31;105791;1284;119002;-79
2022/06/29 06:04:27;;;;;;;14.70;13.30;;;;;;;24.19;78.22;96831.73;105552;1284;140960;-79
2022/06/29 06:06:59;;;;;;;15.30;13.90;;;;;;;24.36;78.19;96837.46;103231;1284;2044049;-80
2022/06/29 06:09:32;;;;;;;16.00;14.40;;;;;;;24.84;78.34;96837.45;105004;1284;1850228;-79
2022/06/29 06:12:04;;;;;;;16.60;15.00;;;;;;;25.45;76.87;96836.44;106492;1284;91757;-80
2022/06/29 06:14:35;;;;;;;17.20;15.70;;;;;;;25.29;73.55;96839.33;106117;1284;100777;-79
2022/06/29 06:17:06;;;;;;;16.10;14.60;;;;;;;24.78;73.13;96841.30;106490;1284;51798;-79
2022/06/29 06:19:38;;;;;;;17.40;15.60;;;;;;;24.52;73.90;96842.08;106393;1284;60976;-79
2022/06/29 06:22:09;;;;;;;18.10;16.40;;;;;;;24.32;73.52;96844.11;106264;1284;78152;-79
2022/06/29 06:24:40;;;;;;;17.20;15.60;;;;;;;24.10;73.66;96849.14;106333;1284;72738;-79
2022/06/29 06:27:11;;;;;;;16.50;15.00;;;;;;;23.99;74.41;96853.98;106497;1284;41819;-79
2022/06/29 06:29:43;;;;;;;16.40;14.70;;;;;;;23.93;74.82;96851.62;106489;1284;44022;-79
2022/06/29 06:32:16;;;;;;;16.20;14.60;;;;;;;23.74;74.31;96854.05;106448;1284;33095;-78
2022/06/29 06:34:47;;;;;;;18.20;16.50;;;;;;;23.47;74.24;96852.88;106412;1284;38250;-79
2022/06/29 06:37:18;;;;;;;17.30;15.70;;;;;;;23.27;74.74;96853.45;106459;1284;37445;-79
2022/06/29 06:42:34;;;;;;;15.10;13.70;;;;;;;23.35;76.81;96843.56;106394;1284;39774;-80
2022/06/29 06:45:09;;;;;;;16.20;14.80;;;;;;;24.13;76.25;96834.58;106059;1284;68651;-79
2022/06/29 06:47:41;;;;;;;15.40;13.90;;;;;;;24.44;74.90;96831.48;106510;1284;115694;-80
2022/06/29 06:50:14;;;;;;;16.40;14.90;;;;;;;24.87;74.64;96834.31;106535;1284;88149;-80
2022/06/29 06:52:44;;;;;;;16.80;15.40;;;;;;;26.26;72.63;96835.23;105441;1284;2190364;-80
2022/06/29 06:55:16;;;;;;;16.40;14.90;;;;;;;26.38;69.04;96834.56;106942;1284;38226;-79
2022/06/29 06:57:47;;;;;;;16.40;14.50;;;;;;;26.39;70.17;96830.91;106963;1283;36968;-80
2022/06/29 07:00:18;;;;;;;14.90;13.50;;;;;;;28.45;70.85;96829.71;106980;1283;45936;-79
2022/06/29 07:02:49;;;;;;;14.60;13.30;;;;;;;29.63;65.10;96823.18;106675;1284;94460;-79
2022/06/29 07:05:21;;;;;;;15.30;13.90;;;;;;;29.83;63.37;96823.86;106933;1284;37893;-79
2022/06/29 07:07:52;;;;;;;15.30;14.00;;;;;;;30.43;62.49;96821.39;106954;1284;99931;-80
2022/06/29 07:10:23;;;;;;;14.90;13.50;;;;;;;30.58;59.97;96825.41;106588;1284;42427;-81
2022/06/29 07:12:54;;;;;;;15.20;13.90;;;;;;;29.81;58.37;96814.89;106600;1284;150925;-81
2022/06/29 07:15:25;;;;;;;15.50;14.10;;;;;;;29.10;58.62;96814.31;107011;1284;44173;-80
2022/06/29 07:17:57;;;;;;;15.10;13.90;;;;;;;28.66;58.86;96812.64;106669;1284;78924;-79
2022/06/29 07:20:30;;;;;;;14.60;13.10;;;;;;;28.40;60.52;96812.81;106488;1284;128217;-79
2022/06/29 07:23:01;;;;;;;14.40;13.10;;;;;;;29.65;61.73;96815.16;106963;1284;81055;-76
2022/06/29 07:25:32;;;;;;;14.60;13.50;;;;;;;32.10;59.79;96812.09;106301;1284;38349;-79
2022/06/29 07:28:03;;;;;;;14.20;12.90;;;;;;;33.18;55.95;96806.73;106317;1284;33501;-79
2022/06/29 07:30:35;;;;;;;14.10;12.90;;;;;;;33.77;53.81;96805.77;105249;1284;1460546;-78
2022/06/29 07:33:09;;;;;;;13.50;12.30;;;;;;;34.80;52.18;96804.26;106316;1284;58731;-80
2022/06/29 07:35:40;;;;;;;13.80;12.50;;;;;;;35.76;50.36;96807.29;107048;1284;42288;-81
2022/06/29 07:38:11;;;;;;;13.30;12.00;;;;;;;36.92;47.69;96801.77;107064;1284;92546;-80
2022/06/29 07:40:42;;;;;;;12.70;11.60;;;;;;;37.32;44.69;96796.84;107183;1284;41946;-83
2022/06/29 07:43:13;;;;;;;12.30;11.20;;;;;;;37.54;44.41;96792.95;107187;1281;38701;-81
2022/06/29 07:45:47;;;;;;;10.90;9.90;;;;;;;37.88;44.40;96797.59;107042;1284;51820;-80
2022/06/29 07:48:18;;;;;;;11.30;10.30;;;;;;;39.11;40.84;96796.02;107021;1284;43179;-80
2022/06/29 07:50:53;;;;;;;12.30;11.00;;;;;;;38.44;37.03;96796.58;107046;1284;36929;-78
2022/06/29 07:53:24;;;;;;;10.40;9.50;;;;;;;38.43;39.60;96796.48;106452;1284;66325;-78
2022/06/29 07:55:57;;;;;;;10.30;9.40;;;;;;;40.01;39.39;96795.61;106533;1284;42127;-79
2022/06/29 07:58:29;;;;;;;10.00;9.20;;;;;;;41.48;36.87;96790.92;106369;1284;67837;-79
2022/06/29 08:01:00;;;;;;;10.90;10.00;;;;;;;41.96;35.60;96793.36;106674;1284;31297;-79
2022/06/29 08:03:32;;;;;;;10.20;9.30;;;;;;;42.29;34.70;96794.88;106599;1284;43492;-79
2022/06/29 08:06:05;;;;;;;9.70;8.70;;;;;;;42.88;34.72;96784.59;106577;1284;48062;-79
2022/06/29 08:08:38;;;;;;;9.20;8.40;;;;;;;43.45;33.50;96785.60;106613;1284;48591;-79
2022/06/29 08:11:09;;;;;;;9.10;8.30;;;;;;;43.89;33.72;96784.70;106757;1284;50011;-80
2022/06/29 08:13:40;;;;;;;9.60;8.80;;;;;;;44.52;32.61;96790.79;106617;1284;32881;-81
2022/06/29 08:16:12;;;;;;;8.90;8.00;;;;;;;44.19;31.32;96787.95;106754;1284;116354;-81
2022/06/29 08:18:44;;;;;;;9.40;8.70;;;;;;;43.81;31.39;96779.21;106508;1284;241389;-79
2022/06/29 08:21:20;;;;;;;9.50;8.70;;;;;;;44.37;30.87;96789.12;106276;1284;131563;-78
2022/06/29 08:23:52;;;;;;;9.30;8.50;;;;;;;44.82;30.16;96788.73;106570;1284;97369;-79
2022/06/29 08:26:26;;;;;;;9.30;8.60;;;;;;;45.85;29.69;96784.73;104980;1284;2055406;-80
2022/06/29 08:28:57;;;;;;;9.30;8.50;;;;;;;45.69;28.06;96780.02;106328;1284;140228;-80
2022/06/29 08:31:32;;;;;;;9.40;8.50;;;;;;;45.60;28.39;96777.80;106664;1284;94160;-79
2022/06/29 08:34:04;;;;;;;9.10;8.20;;;;;;;46.10;28.04;96765.23;106299;1284;150891;-80
2022/06/29 08:36:35;;;;;;;9.30;8.60;;;;;;;46.65;27.44;96760.16;106480;1284;136433;-80
2022/06/29 08:39:07;;;;;;;8.40;7.60;;;;;;;45.78;26.46;96760.77;105217;1284;1794492;-80
2022/06/29 08:41:41;;;;;;;7.90;7.10;;;;;;;45.61;26.98;96754.92;106320;1282;146137;-79
2022/06/29 08:44:13;;;;;;;9.10;8.30;;;;;;;44.37;25.70;96756.42;106688;1284;127276;-80
2022/06/29 08:46:45;;;;;;;8.90;8.20;;;;;;;43.86;27.72;96756.24;106599;1284;98219;-79
2022/06/29 08:49:17;;;;;;;9.30;8.50;;;;;;;43.75;26.96;96753.37;106375;1284;98454;-79
2022/06/29 08:51:50;;;;;;;9.40;8.60;;;;;;;41.79;26.77;96746.55;106135;1284;124888;-79
2022/06/29 08:54:22;;;;;;;10.10;9.20;;;;;;;39.21;29.54;96743.50;105227;1284;1501500;-78
2022/06/29 08:56:56;;;;;;;11.60;10.40;;;;;;;36.91;32.29;96736.42;106402;1284;134706;-78
2022/06/29 08:59:29;;;;;;;11.50;10.40;;;;;;;35.75;34.93;96737.09;106319;1284;101232;-79
2022/06/29 09:02:01;;;;;;;12.60;11.60;;;;;;;34.49;36.33;96736.72;106356;1284;118566;-80
2022/06/29 09:04:34;;;;;;;12.20;11.10;;;;;;;34.07;38.13;96739.26;106402;1284;91486;-79
2022/06/29 09:07:06;;;;;;;13.00;11.90;;;;;;;34.26;38.92;96741.77;106420;1284;87559;-80
2022/06/29 09:10:01;;;;;;;11.80;10.80;;;;;;;34.11;38.86;96744.59;106667;1284;43973;-81
2022/06/29 09:12:35;;;;;;;12.90;11.80;;;;;;;33.35;39.31;96746.86;106820;1284;48091;-78
2022/06/29 09:15:10;;;;;;;13.40;12.20;;;;;;;32.65;40.56;96746.17;106773;1284;56373;-79
2022/06/29 09:17:44;;;;;;;13.20;12.10;;;;;;;32.23;41.63;96743.42;106670;1284;62304;-79
2022/06/29 09:20:19;;;;;;;13.00;11.70;;;;;;;31.58;42.73;96743.84;106659;1284;55163;-79
2022/06/29 09:22:58;;;;;;;13.20;12.00;;;;;;;31.05;44.46;96743.70;105520;1283;1786831;-80
2022/06/29 09:25:32;;;;;;;14.80;13.40;;;;;;;31.00;44.87;96744.85;106695;1284;76432;-79
2022/06/29 09:28:18;;;;;;;14.10;12.90;;;;;;;30.62;45.30;96737.41;106666;1284;56434;-80
2022/06/29 09:30:55;;;;;;;13.00;11.90;;;;;;;30.68;46.62;96737.69;106819;1284;31783;-79
2022/06/29 09:33:29;;;;;;;13.50;12.30;;;;;;;30.71;46.46;96735.09;106478;1284;69468;-79
2022/06/29 09:36:10;;;;;;;14.30;13.00;;;;;;;30.62;47.24;96731.64;103707;1284;2273441;-80
2022/06/29 09:38:43;;;;;;;13.40;12.00;;;;;;;31.09;47.27;96733.71;106736;1283;37956;-79
2022/06/29 09:41:16;;;;;;;12.40;11.40;;;;;;;31.04;46.98;96737.52;107126;1284;33015;-79
2022/06/29 09:43:49;;;;;;;13.10;12.00;;;;;;;31.08;47.43;96732.63;106615;1284;42325;-79
2022/06/29 09:46:21;;;;;;;13.50;12.20;;;;;;;31.86;47.88;96729.18;106002;1281;184749;-81
2022/06/29 09:48:54;;;;;;;12.70;11.50;;;;;;;32.58;46.05;96729.52;104871;1284;1831122;-80
2022/06/29 09:51:32;;;;;;;15.50;12.30;;;;;;;32.17;44.74;96731.36;106479;1284;84231;-79
2022/06/29 09:54:10;;;;;;;12.20;11.10;;;;;;;31.90;45.93;96729.77;106405;1283;99926;-79
2022/06/29 09:56:47;;;;;;;13.70;12.10;;;;;;;31.88;45.94;96729.33;106311;1284;77195;-78
2022/06/29 10:02:34;;;;;;;12.70;11.60;;;;;;;32.09;46.75;96727.58;106105;1284;109975;-79
2022/06/29 10:02:38;;;;;;;12.90;11.60;;;;;;;32.53;45.55;96719.58;106209;1284;92101;-80
2022/06/29 10:05:14;;;;;;;11.50;10.40;;;;;;;32.06;45.93;96719.33;106127;1284;101038;-80
2022/06/29 10:07:51;;;;;;;12.10;11.00;;;;;;;31.95;45.87;96713.23;106185;1283;113625;-79
2022/06/29 10:10:24;;;;;;;12.30;11.00;;;;;;;31.98;46.65;96713.49;106125;1284;104644;-79
2022/06/29 10:16:19;;;;;;;12.60;11.40;;;;;;;31.21;46.50;96713.70;106650;1284;32821;-78
2022/06/29 10:19:13;;;;;;;12.40;11.10;;;;;;;31.14;47.87;96713.16;105181;1284;1840961;-79
2022/06/29 10:21:45;;;;;;;13.30;12.10;;;;;;;31.76;47.81;96710.30;106791;1284;30079;-79
2022/06/29 10:24:21;;;;;;;26.00;23.30;;;;;;;32.04;46.62;96711.29;106634;1284;47989;-80
2022/06/29 10:26:53;;;;;;;12.50;11.30;;;;;;;31.62;46.44;96713.86;106544;1284;111527;-80
2022/06/29 10:29:38;;;;;;;12.30;11.20;;;;;;;31.19;46.74;96721.33;106377;1282;49945;-80
2022/06/29 10:32:14;;;;;;;11.90;10.80;;;;;;;31.18;47.74;96711.77;106440;1284;38183;-80
2022/06/29 10:35:08;;;;;;;12.40;11.20;;;;;;;31.73;47.63;96706.59;107448;1281;47904;-80
2022/06/29 10:37:52;;;;;;;14.00;12.60;;;;;;;31.69;47.45;96705.85;106855;1282;45480;-81
2022/06/29 10:40:30;;;;;;;15.10;13.60;;;;;;;31.44;47.06;96713.65;106929;1281;68762;-80
2022/06/29 10:43:21;;;;;;;12.90;11.80;;;;;;;31.06;47.11;96713.33;106779;1284;58851;-80
2022/06/29 10:45:57;;;;;;;13.30;11.20;;;;;;;31.01;47.95;96704.92;106926;1283;38655;-80
2022/06/29 10:48:31;;;;;;;13.00;11.90;;;;;;;31.41;48.19;96700.29;106778;1282;107807;-81
2022/06/29 10:51:06;;;;;;;12.90;11.20;;;;;;;31.42;47.87;96700.14;106876;1284;78151;-80
2022/06/29 10:53:52;;;;;;;12.90;11.60;;;;;;;31.29;48.35;96701.58;106839;1284;116404;-80
2022/06/29 10:56:24;;;;;;;12.10;10.80;;;;;;;30.97;48.24;96703.10;106854;1282;75305;-80
2022/06/29 10:58:55;;;;;;;11.30;10.20;;;;;;;31.16;49.03;96704.77;106858;1281;42744;-80
2022/06/29 11:01:27;;;;;;;11.10;10.00;;;;;;;31.50;48.65;96701.81;106615;1284;111395;-81
2022/06/29 11:03:59;;;;;;;11.60;10.30;;;;;;;31.71;47.39;96699.96;106711;1282;44033;-80
2022/06/29 11:12:16;;;;;;;10.60;9.50;;;;;;;31.75;47.77;96693.95;105638;1283;1803031;-80
2022/06/29 11:17:50;;;;;;;9.90;9.10;;;;;;;31.83;47.75;96686.94;106904;1284;46740;-79
2022/06/29 11:20:24;;;;;;;8.80;7.90;;;;;;;31.96;47.26;96682.74;106764;1284;74744;-79
2022/06/29 11:22:56;;;;;;;9.10;8.20;;;;;;;32.09;45.78;96681.18;106805;1283;41209;-79
2022/06/29 11:25:35;;;;;;;9.20;8.30;;;;;;;31.61;44.58;96678.72;106581;1284;163375;-80
2022/06/29 11:28:07;;;;;;;10.70;9.70;;;;;;;31.04;45.53;96678.38;106949;1284;100502;-80
2022/06/29 11:30:41;;;;;;;9.50;8.60;;;;;;;30.84;46.72;96672.67;106737;1284;133125;-79
2022/06/29 11:33:14;;;;;;;10.30;9.30;;;;;;;30.94;46.48;96673.88;106922;1284;89360;-80
2022/06/29 11:35:47;;;;;;;9.00;8.10;;;;;;;30.77;46.86;96667.67;105398;1284;1954304;-80
2022/06/29 11:38:19;;;;;;;11.80;8.40;;;;;;;30.71;46.48;96667.59;106918;1284;77195;-80
2022/06/29 11:40:54;;;;;;;9.30;8.40;;;;;;;30.65;47.23;96664.98;106902;1284;114620;-79
2022/06/29 11:43:26;;;;;;;11.00;9.90;;;;;;;30.94;47.67;96659.58;106308;1284;145974;-80
2022/06/29 11:45:57;;;;;;;10.20;9.20;;;;;;;31.14;47.91;96661.67;106583;1284;103548;-80
2022/06/29 11:48:31;;;;;;;11.10;8.50;;;;;;;31.33;47.94;96659.56;106603;1284;67470;-79
2022/06/29 11:51:12;;;;;;;10.40;9.40;;;;;;;31.55;48.03;96653.67;105482;1284;1698694;-80
2022/06/29 11:53:48;;;;;;;13.00;9.60;;;;;;;31.61;47.35;96652.02;105131;1284;1774497;-80